createdAt,value
2019-03-24T00:00:38.411Z,93.21
2019-03-24T00:01:18.824Z,93.21
2019-03-24T00:01:59.252Z,93.41
2019-03-24T00:02:39.676Z,93.6
2019-03-24T00:03:20.075Z,92.93
2019-03-24T00:04:00.506Z,93.41
2019-03-24T00:04:40.853Z,93.31
2019-03-24T00:05:21.248Z,93.7
2019-03-24T00:06:01.668Z,93.5
2019-03-24T00:06:42.036Z,93.12
2019-03-24T00:07:22.441Z,93.41
2019-03-24T00:08:02.871Z,93.5
2019-03-24T00:08:43.283Z,93.41
2019-03-24T00:09:23.686Z,93.79
2019-03-24T00:10:04.133Z,93.5
2019-03-24T00:10:44.542Z,93.6
2019-03-24T00:11:24.968Z,93.41
2019-03-24T00:12:05.377Z,93.6
2019-03-24T00:12:45.785Z,93.12
2019-03-24T00:13:26.183Z,93.31
2019-03-24T00:14:06.602Z,93.88
2019-03-24T00:14:47.038Z,93.98
2019-03-24T00:15:27.465Z,94.07
2019-03-24T00:16:07.862Z,94.36
2019-03-24T00:16:48.287Z,94.36
2019-03-24T00:17:28.734Z,93.98
2019-03-24T00:18:09.110Z,93.98
2019-03-24T00:18:49.526Z,94.17
2019-03-24T00:19:29.962Z,93.41
2019-03-24T00:20:10.544Z,93.41
2019-03-24T00:20:50.830Z,93.79
2019-03-24T00:21:31.262Z,93.12
2019-03-24T00:22:11.689Z,92.83
2019-03-24T00:22:52.104Z,93.02
2019-03-24T00:23:32.531Z,93.02
2019-03-24T00:24:12.938Z,93.31
2019-03-24T00:24:53.343Z,93.12
2019-03-24T00:25:33.818Z,93.31
2019-03-24T00:26:14.216Z,93.02
2019-03-24T00:26:54.647Z,93.02
2019-03-24T00:27:35.050Z,93.02
2019-03-24T00:28:15.471Z,92.93
2019-03-24T00:28:55.882Z,92.64
2019-03-24T00:29:36.289Z,92.26
2019-03-24T00:30:16.719Z,92.74
2019-03-24T00:30:57.166Z,92.55
2019-03-24T00:31:37.564Z,93.02
2019-03-24T00:32:17.976Z,92.36
2019-03-24T00:32:58.409Z,93.5
2019-03-24T00:33:38.784Z,93.6
2019-03-24T00:34:19.192Z,93.5
2019-03-24T00:34:59.621Z,93.21
2019-03-24T00:35:40.048Z,93.41
2019-03-24T00:36:20.477Z,93.31
2019-03-24T00:37:00.891Z,93.79
2019-03-24T00:37:41.313Z,93.5
2019-03-24T00:38:21.746Z,93.5
2019-03-24T00:39:02.181Z,93.41
2019-03-24T00:39:42.616Z,93.21
2019-03-24T00:40:23.019Z,93.7
2019-03-24T00:41:03.444Z,93.5
2019-03-24T00:41:43.928Z,93.41
2019-03-24T00:42:24.341Z,93.98
2019-03-24T00:43:04.766Z,93.88
2019-03-24T00:43:45.174Z,94.27
2019-03-24T00:44:25.583Z,94.17
2019-03-24T00:45:06.022Z,93.7
2019-03-24T00:45:46.458Z,93.6
2019-03-24T00:46:26.885Z,93.6
2019-03-24T00:47:07.311Z,93.31
2019-03-24T00:47:49.495Z,93.5
2019-03-24T00:48:28.120Z,93.41
2019-03-24T00:49:08.505Z,93.21
2019-03-24T00:49:48.947Z,93.6
2019-03-24T00:50:29.324Z,93.7
2019-03-24T00:51:09.752Z,93.41
2019-03-24T00:51:50.180Z,93.02
2019-03-24T00:52:30.573Z,93.41
2019-03-24T00:53:11.013Z,93.5
2019-03-24T00:53:51.426Z,93.6
2019-03-24T00:54:31.838Z,93.5
2019-03-24T00:55:12.268Z,92.36
2019-03-24T00:55:52.682Z,93.12
2019-03-24T00:56:33.095Z,92.83
2019-03-24T00:57:13.526Z,92.93
2019-03-24T00:57:53.930Z,93.21
2019-03-24T00:58:34.342Z,92.64
2019-03-24T00:59:14.771Z,92.55
2019-03-24T00:59:55.203Z,92.64
2019-03-24T01:00:35.628Z,92.36
2019-03-24T01:01:16.039Z,92.74
2019-03-24T01:01:56.469Z,92.45
2019-03-24T01:02:36.893Z,91.97
2019-03-24T01:03:17.367Z,92.64
2019-03-24T01:03:57.808Z,92.07
2019-03-24T01:04:38.219Z,92.64
2019-03-24T01:05:18.637Z,92.64
2019-03-24T01:05:59.069Z,91.97
2019-03-24T01:06:39.563Z,91.97
2019-03-24T01:07:19.955Z,92.83
2019-03-24T01:08:01.311Z,92.36
2019-03-24T01:08:41.739Z,92.36
2019-03-24T01:09:22.095Z,92.64
2019-03-24T01:10:02.499Z,92.83
2019-03-24T01:10:42.915Z,92.45
2019-03-24T01:11:23.338Z,92.74
2019-03-24T01:12:03.855Z,93.21
2019-03-24T01:12:44.277Z,92.74
2019-03-24T01:13:24.711Z,92.83
2019-03-24T01:14:05.119Z,93.02
2019-03-24T01:14:45.570Z,93.12
2019-03-24T01:15:25.950Z,93.12
2019-03-24T01:16:06.367Z,92.36
2019-03-24T01:16:46.792Z,92.83
2019-03-24T01:17:27.229Z,92.93
2019-03-24T01:18:07.641Z,92.93
2019-03-24T01:18:47.974Z,93.41
2019-03-24T01:19:28.437Z,93.21
2019-03-24T01:20:08.758Z,93.6
2019-03-24T01:20:49.191Z,93.41
2019-03-24T01:21:29.580Z,94.27
2019-03-24T01:22:10.000Z,94.07
2019-03-24T01:22:50.429Z,94.93
2019-03-24T01:23:30.832Z,94.74
2019-03-24T01:24:11.277Z,94.7
2019-03-24T01:24:51.670Z,94.41
2019-03-24T01:25:32.080Z,94.31
2019-03-24T01:26:12.515Z,94.51
2019-03-24T01:26:52.899Z,94.31
2019-03-24T01:27:33.338Z,94.41
2019-03-24T01:28:13.768Z,94.41
2019-03-24T01:28:54.200Z,94.55
2019-03-24T01:29:34.614Z,94.07
2019-03-24T01:30:15.025Z,93.98
2019-03-24T01:30:55.433Z,93.98
2019-03-24T01:31:35.911Z,94.36
2019-03-24T01:32:16.286Z,93.79
2019-03-24T01:32:56.696Z,93.41
2019-03-24T01:33:37.106Z,93.7
2019-03-24T01:34:17.521Z,93.12
2019-03-24T01:34:57.942Z,93.36
2019-03-24T01:35:38.361Z,93.55
2019-03-24T01:36:18.780Z,93.46
2019-03-24T01:36:59.204Z,93.21
2019-03-24T01:37:39.651Z,93.46
2019-03-24T01:38:20.033Z,93.93
2019-03-24T01:39:00.458Z,93.26
2019-03-24T01:39:40.858Z,93.36
2019-03-24T01:40:21.248Z,93.65
2019-03-24T01:41:01.629Z,93.36
2019-03-24T01:41:43.590Z,93.17
2019-03-24T01:42:24.027Z,93.17
2019-03-24T01:43:04.448Z,92.31
2019-03-24T01:43:44.859Z,92.97
2019-03-24T01:44:25.264Z,92.79
2019-03-24T01:45:05.684Z,93.31
2019-03-24T01:45:46.105Z,92.07
2019-03-24T01:46:26.536Z,92.45
2019-03-24T01:47:06.953Z,91.5
2019-03-24T01:47:47.341Z,92.12
2019-03-24T01:48:27.773Z,91.5
2019-03-24T01:49:08.188Z,91.74
2019-03-24T01:49:48.608Z,91.5
2019-03-24T01:50:29.019Z,91.4
2019-03-24T01:51:09.395Z,91.4
2019-03-24T01:51:49.787Z,90.64
2019-03-24T01:52:30.222Z,91.4
2019-03-24T01:53:10.644Z,91.02
2019-03-24T01:53:51.058Z,91.55
2019-03-24T01:54:31.462Z,90.97
2019-03-24T01:55:11.863Z,91.36
2019-03-24T01:55:52.279Z,90.59
2019-03-24T01:56:32.709Z,91.45
2019-03-24T01:57:13.119Z,90.59
2019-03-24T01:57:53.541Z,91.45
2019-03-24T01:58:33.935Z,90.88
2019-03-24T01:59:14.358Z,91.45
2019-03-24T01:59:54.778Z,90.88
2019-03-24T02:00:35.207Z,91.36
2019-03-24T02:01:15.636Z,91.36
2019-03-24T02:01:56.056Z,91.36
2019-03-24T02:02:36.465Z,90.78
2019-03-24T02:03:16.927Z,90.88
2019-03-24T02:03:57.290Z,91.45
2019-03-24T02:04:37.687Z,91.26
2019-03-24T02:05:18.094Z,91.07
2019-03-24T02:05:58.533Z,90.88
2019-03-24T02:06:38.942Z,91.26
2019-03-24T02:07:19.380Z,90.69
2019-03-24T02:07:59.783Z,90.5
2019-03-24T02:08:40.204Z,90.78
2019-03-24T02:09:20.629Z,91.07
2019-03-24T02:10:01.060Z,90.97
2019-03-24T02:10:41.481Z,91.16
2019-03-24T02:11:21.900Z,90.69
2019-03-24T02:12:02.312Z,90.5
2019-03-24T02:12:42.731Z,90.78
2019-03-24T02:13:23.145Z,91.07
2019-03-24T02:14:03.561Z,90.78
2019-03-24T02:14:43.976Z,91.07
2019-03-24T02:15:24.379Z,91.26
2019-03-24T02:16:09.196Z,90.88
2019-03-24T02:16:45.165Z,90.78
2019-03-24T02:17:25.559Z,90.78
2019-03-24T02:18:05.984Z,91.26
2019-03-24T02:18:46.375Z,91.26
2019-03-24T02:19:26.812Z,91.36
2019-03-24T02:20:07.240Z,90.78
2019-03-24T02:20:47.652Z,91.55
2019-03-24T02:21:28.076Z,91.26
2019-03-24T02:22:08.494Z,90.88
2019-03-24T02:22:48.948Z,91.07
2019-03-24T02:23:29.327Z,90.97
2019-03-24T02:24:09.735Z,91.26
2019-03-24T02:24:50.153Z,91.16
2019-03-24T02:25:30.581Z,91.07
2019-03-24T02:26:10.998Z,90.59
2019-03-24T02:26:51.439Z,90.97
2019-03-24T02:27:31.870Z,90.11
2019-03-24T02:28:12.272Z,90.31
2019-03-24T02:28:52.705Z,90.02
2019-03-24T02:29:33.134Z,89.92
2019-03-24T02:30:13.574Z,90.02
2019-03-24T02:30:53.955Z,89.73
2019-03-24T02:31:34.375Z,90.31
2019-03-24T02:32:14.817Z,90.02
2019-03-24T02:32:55.192Z,89.92
2019-03-24T02:33:35.594Z,89.92
2019-03-24T02:34:15.997Z,90.21
2019-03-24T02:34:56.412Z,90.02
2019-03-24T02:35:36.835Z,89.92
2019-03-24T02:36:17.255Z,90.02
2019-03-24T02:36:57.662Z,89.92
2019-03-24T02:37:38.050Z,89.73
2019-03-24T02:38:18.454Z,89.92
2019-03-24T02:38:58.886Z,89.54
2019-03-24T02:39:39.306Z,90.11
2019-03-24T02:40:20.650Z,90.21
2019-03-24T02:41:01.055Z,90.02
2019-03-24T02:41:41.441Z,90.11
2019-03-24T02:42:21.878Z,90.21
2019-03-24T02:43:02.301Z,90.11
2019-03-24T02:43:42.705Z,89.35
2019-03-24T02:44:23.141Z,89.73
2019-03-24T02:45:03.525Z,89.64
2019-03-24T02:45:43.944Z,89.73
2019-03-24T02:46:25.091Z,89.45
2019-03-24T02:47:04.792Z,89.45
2019-03-24T02:47:45.194Z,89.25
2019-03-24T02:48:25.584Z,89.73
2019-03-24T02:49:05.999Z,89.35
2019-03-24T02:49:46.420Z,89.83
2019-03-24T02:50:26.849Z,89.45
2019-03-24T02:51:07.257Z,89.45
2019-03-24T02:51:47.638Z,89.64
2019-03-24T02:52:28.045Z,89.35
2019-03-24T02:53:08.473Z,89.92
2019-03-24T02:53:48.894Z,89.64
2019-03-24T02:54:30.904Z,89.16
2019-03-24T02:55:11.298Z,89.83
2019-03-24T02:55:51.714Z,89.45
2019-03-24T02:56:32.108Z,89.83
2019-03-24T02:57:12.577Z,89.54
2019-03-24T02:57:52.894Z,88.87
2019-03-24T02:58:33.303Z,89.16
2019-03-24T02:59:13.803Z,88.97
2019-03-24T02:59:54.148Z,89.06
2019-03-24T03:00:34.576Z,89.25
2019-03-24T03:01:14.941Z,89.45
2019-03-24T03:01:55.381Z,89.73
2019-03-24T03:02:35.748Z,89.06
2019-03-24T03:03:16.138Z,89.35
2019-03-24T03:03:56.510Z,88.68
2019-03-24T03:04:36.910Z,88.11
2019-03-24T03:05:17.332Z,88.3
2019-03-24T03:05:57.753Z,88.11
2019-03-24T03:06:38.160Z,88.2
2019-03-24T03:07:18.558Z,88.01
2019-03-24T03:07:58.986Z,88.11
2019-03-24T03:08:39.660Z,88.49
2019-03-24T03:09:20.108Z,88.4
2019-03-24T03:10:00.532Z,87.82
2019-03-24T03:10:40.899Z,87.82
2019-03-24T03:11:21.295Z,87.35
2019-03-24T03:12:01.697Z,87.54
2019-03-24T03:12:42.087Z,87.92
2019-03-24T03:13:22.485Z,88.11
2019-03-24T03:14:02.919Z,87.73
2019-03-24T03:14:43.290Z,87.15
2019-03-24T03:15:23.720Z,87.63
2019-03-24T03:16:04.229Z,88.2
2019-03-24T03:16:44.611Z,87.73
2019-03-24T03:17:25.032Z,87.92
2019-03-24T03:18:05.418Z,88.4
2019-03-24T03:18:45.836Z,88.68
2019-03-24T03:19:26.257Z,88.01
2019-03-24T03:20:06.685Z,87.63
2019-03-24T03:20:47.119Z,88.3
2019-03-24T03:21:27.542Z,88.4
2019-03-24T03:22:07.971Z,88.01
2019-03-24T03:22:48.398Z,88.3
2019-03-24T03:23:28.805Z,88.01
2019-03-24T03:24:09.231Z,88.2
2019-03-24T03:24:49.648Z,87.82
2019-03-24T03:25:30.070Z,87.92
2019-03-24T03:26:10.471Z,87.82
2019-03-24T03:26:50.903Z,87.44
2019-03-24T03:27:31.341Z,87.73
2019-03-24T03:28:11.756Z,87.82
2019-03-24T03:28:52.176Z,86.96
2019-03-24T03:29:32.560Z,87.25
2019-03-24T03:30:12.973Z,87.35
2019-03-24T03:30:53.418Z,87.54
2019-03-24T03:31:33.818Z,87.44
2019-03-24T03:32:14.263Z,87.06
2019-03-24T03:32:54.695Z,87.44
2019-03-24T03:33:35.134Z,86.49
2019-03-24T03:34:15.559Z,86.77
2019-03-24T03:34:55.945Z,86.96
2019-03-24T03:35:36.390Z,87.15
2019-03-24T03:36:16.802Z,87.06
2019-03-24T03:36:57.220Z,87.06
2019-03-24T03:37:37.643Z,86.96
2019-03-24T03:38:18.052Z,86.68
2019-03-24T03:38:58.451Z,86.2
2019-03-24T03:39:38.834Z,86.77
2019-03-24T03:40:19.231Z,86.58
2019-03-24T03:40:59.646Z,86.58
2019-03-24T03:41:40.058Z,87.06
2019-03-24T03:42:20.445Z,86.68
2019-03-24T03:43:00.861Z,86.3
2019-03-24T03:43:41.243Z,86.49
2019-03-24T03:44:21.651Z,86.3
2019-03-24T03:45:02.077Z,86.96
2019-03-24T03:45:42.479Z,86.68
2019-03-24T03:46:22.887Z,86.39
2019-03-24T03:47:03.277Z,86.2
2019-03-24T03:47:43.700Z,86.01
2019-03-24T03:48:26.032Z,86.01
2019-03-24T03:49:06.434Z,85.91
2019-03-24T03:49:46.861Z,86.87
2019-03-24T03:50:27.256Z,86.35
2019-03-24T03:51:07.686Z,87.06
2019-03-24T03:51:48.068Z,87.4
2019-03-24T03:52:28.476Z,87.49
2019-03-24T03:53:08.857Z,87.15
2019-03-24T03:53:49.241Z,86.87
2019-03-24T03:54:29.618Z,86.87
2019-03-24T03:55:10.034Z,86.87
2019-03-24T03:55:50.412Z,87.21
2019-03-24T03:56:30.845Z,87.21
2019-03-24T03:57:11.255Z,86.92
2019-03-24T03:57:51.698Z,86.82
2019-03-24T03:58:32.089Z,87.3
2019-03-24T03:59:12.509Z,87.59
2019-03-24T03:59:52.927Z,87.97
2019-03-24T04:00:33.347Z,87.59
2019-03-24T04:01:13.783Z,87.68
2019-03-24T04:01:54.162Z,87.97
2019-03-24T04:02:34.587Z,87.97
2019-03-24T04:03:15.916Z,87.68
2019-03-24T04:03:56.334Z,86.82
2019-03-24T04:04:36.775Z,86.92
2019-03-24T04:05:17.192Z,87.25
2019-03-24T04:05:57.619Z,87.11
2019-03-24T04:06:38.030Z,87.11
2019-03-24T04:07:18.482Z,86.82
2019-03-24T04:07:58.859Z,87.11
2019-03-24T04:08:40.195Z,87.63
2019-03-24T04:09:20.606Z,87.49
2019-03-24T04:10:01.023Z,87.35
2019-03-24T04:10:41.466Z,86.96
2019-03-24T04:11:21.830Z,87.06
2019-03-24T04:12:02.224Z,86.96
2019-03-24T04:12:42.871Z,86.87
2019-03-24T04:13:23.252Z,86.77
2019-03-24T04:14:03.687Z,86.73
2019-03-24T04:14:44.015Z,86.2
2019-03-24T04:15:24.430Z,86.2
2019-03-24T04:16:04.833Z,86.25
2019-03-24T04:16:45.228Z,87.11
2019-03-24T04:17:25.668Z,86.58
2019-03-24T04:18:06.042Z,86.73
2019-03-24T04:18:46.407Z,86.82
2019-03-24T04:19:26.812Z,86.92
2019-03-24T04:20:07.243Z,86.73
2019-03-24T04:20:47.636Z,86.58
2019-03-24T04:21:28.041Z,86.1
2019-03-24T04:22:08.454Z,85.72
2019-03-24T04:22:48.845Z,86.2
2019-03-24T04:23:29.236Z,86.01
2019-03-24T04:24:09.631Z,85.05
2019-03-24T04:24:50.019Z,85.15
2019-03-24T04:25:30.405Z,85.34
2019-03-24T04:26:10.810Z,84.96
2019-03-24T04:26:51.227Z,85.15
2019-03-24T04:27:31.573Z,85.25
2019-03-24T04:28:11.971Z,85.72
2019-03-24T04:28:52.359Z,85.91
2019-03-24T05:06:32.969Z,98.18
2019-03-24T05:07:12.850Z,98.18
2019-03-24T05:07:53.302Z,98.65
2019-03-24T05:08:33.689Z,98.36
2019-03-24T05:09:14.076Z,98.75
2019-03-24T05:09:54.576Z,98.46
2019-03-24T05:10:34.950Z,98.56
2019-03-24T05:11:15.254Z,98.65
2019-03-24T05:11:55.635Z,98.56
2019-03-24T05:12:36.085Z,98.18
2019-03-24T05:13:16.460Z,98.36
2019-03-24T05:13:56.890Z,98.27
2019-03-24T05:14:37.266Z,98.36
2019-03-24T05:15:17.651Z,98.56
2019-03-24T05:15:58.044Z,98.85
2019-03-24T05:16:38.545Z,98.46
2019-03-24T05:17:26.641Z,98.46
2019-03-24T05:17:59.371Z,98.94
2019-03-24T05:18:39.769Z,99.22
2019-03-24T05:22:38.542Z,97.99
2019-03-24T05:23:21.444Z,97.51
2019-03-24T05:24:01.878Z,97.8
2019-03-24T05:24:42.284Z,96.65
2019-03-24T05:25:23.750Z,96.56
2019-03-24T05:26:03.129Z,96.51
2019-03-24T05:26:43.576Z,96.03
2019-03-24T05:27:23.911Z,95.37
2019-03-24T05:28:04.307Z,95.37
2019-03-24T05:30:55.831Z,95.17
2019-03-24T05:31:36.111Z,96.03
2019-03-24T05:32:16.522Z,94.98
2019-03-24T05:32:56.923Z,94.7
2019-03-24T05:33:37.348Z,94.6
2019-03-24T05:34:17.759Z,94.03
2019-03-24T05:34:58.169Z,93.84
2019-03-24T05:35:38.567Z,93.93
2019-03-24T05:36:18.974Z,93.74
2019-03-24T05:36:59.396Z,93.36
2019-03-24T05:37:39.822Z,92.22
2019-03-24T05:38:20.235Z,92.93
2019-03-24T05:39:00.644Z,92.65
2019-03-24T05:39:41.041Z,92.26
2019-03-24T05:40:21.517Z,91.69
2019-03-24T05:41:01.894Z,91.6
2019-03-24T05:41:42.306Z,91.69
2019-03-24T05:42:22.747Z,90.64
2019-03-24T05:43:03.156Z,90.64
2019-03-24T05:43:44.509Z,91.21
2019-03-24T05:44:24.932Z,91.02
2019-03-24T05:45:05.329Z,90.73
2019-03-24T05:45:45.706Z,90.36
2019-03-24T05:46:26.087Z,89.88
2019-03-24T05:47:06.487Z,90.26
2019-03-24T05:47:46.850Z,89.59
2019-03-24T05:48:27.264Z,89.97
2019-03-24T05:49:07.656Z,89.78
2019-03-24T05:49:48.080Z,90.17
2019-03-24T05:50:28.513Z,90.07
2019-03-24T05:51:08.899Z,90.73
2019-03-24T05:51:49.318Z,90.64
2019-03-24T05:52:29.720Z,89.78
2019-03-24T05:53:10.135Z,89.97
2019-03-24T05:53:50.627Z,90.07
2019-03-24T05:54:31.042Z,90.26
2019-03-24T05:55:11.471Z,90.36
2019-03-24T05:55:51.931Z,90.26
2019-03-24T05:56:32.325Z,89.78
2019-03-24T05:57:12.728Z,89.88
2019-03-24T05:57:53.142Z,90.17
2019-03-24T05:58:33.538Z,90.17
2019-03-24T05:59:13.964Z,89.88
2019-03-24T05:59:54.368Z,89.69
2019-03-24T06:00:34.782Z,89.97
2019-03-24T06:01:15.169Z,89.88
2019-03-24T06:01:55.595Z,90.17
2019-03-24T06:02:36.006Z,90.45
2019-03-24T06:03:16.393Z,90.83
2019-03-24T06:03:56.811Z,90.73
2019-03-24T06:04:37.183Z,90.73
2019-03-24T06:05:17.615Z,90.73
2019-03-24T06:05:58.061Z,90.45
2019-03-24T06:06:38.453Z,90.64
2019-03-24T06:07:18.878Z,90.55
2019-03-24T06:07:59.303Z,90.73
2019-03-24T06:08:39.741Z,90.83
2019-03-24T06:09:20.158Z,90.45
2019-03-24T06:10:00.568Z,91.02
2019-03-24T06:10:40.975Z,90.31
2019-03-24T06:11:21.403Z,91.02
2019-03-24T06:12:01.817Z,90.73
2019-03-24T06:12:42.239Z,90.83
2019-03-24T06:13:22.667Z,91.31
2019-03-24T06:14:03.092Z,90.83
2019-03-24T06:14:43.502Z,91.02
2019-03-24T06:15:23.923Z,90.93
2019-03-24T06:16:04.337Z,90.45
2019-03-24T06:16:44.766Z,90.73
2019-03-24T06:17:25.210Z,90.83
2019-03-24T06:18:05.609Z,90.45
2019-03-24T06:18:46.026Z,90.83
2019-03-24T06:19:26.445Z,90.79
2019-03-24T06:22:22.962Z,90.93
2019-03-24T06:23:03.414Z,90.83
2019-03-24T06:23:43.820Z,90.55
2019-03-24T06:24:24.196Z,90.83
2019-03-24T06:25:04.611Z,89.88
2019-03-24T06:25:45.061Z,89.59
2019-03-24T06:26:25.463Z,89.59
2019-03-24T06:27:05.895Z,88.73
2019-03-24T06:27:46.290Z,89.02
2019-03-24T06:28:26.692Z,88.3
2019-03-24T06:29:07.134Z,88.59
2019-03-24T06:29:47.558Z,88.3
2019-03-24T06:30:27.986Z,88.01
2019-03-24T06:31:08.415Z,87.78
2019-03-24T06:31:48.822Z,87.35
2019-03-24T06:32:29.242Z,87.82
2019-03-24T06:33:09.638Z,87.92
2019-03-24T06:33:50.052Z,87.73
2019-03-24T06:34:30.482Z,86.96
2019-03-24T06:35:10.886Z,87.06
2019-03-24T06:35:51.292Z,87.15
2019-03-24T06:36:31.699Z,86.77
2019-03-24T06:37:12.139Z,86.77
2019-03-24T06:37:52.523Z,86.68
2019-03-24T06:38:32.912Z,86.68
2019-03-24T06:39:13.315Z,86.49
2019-03-24T06:39:53.688Z,86.68
2019-03-24T06:40:34.086Z,87.06
2019-03-24T06:41:14.468Z,86.68
2019-03-24T06:41:54.904Z,86.77
2019-03-24T06:42:35.322Z,85.82
2019-03-24T06:43:15.722Z,85.05
2019-03-24T06:43:56.143Z,85.44
2019-03-24T06:44:36.554Z,85.05
2019-03-24T06:45:20.405Z,85.91
2019-03-24T06:45:57.390Z,86.1
2019-03-24T06:46:37.797Z,85.53
2019-03-24T06:47:18.193Z,85.86
2019-03-24T06:47:58.599Z,85.58
2019-03-24T06:48:39.917Z,85
2019-03-24T06:49:20.349Z,84.48
2019-03-24T06:50:00.737Z,85.05
2019-03-24T06:50:41.162Z,84.96
2019-03-24T06:51:21.576Z,84.77
2019-03-24T06:52:01.987Z,85.44
2019-03-24T06:52:42.398Z,84.86
2019-03-24T06:53:22.810Z,84.96
2019-03-24T06:54:03.226Z,84.96
2019-03-24T06:54:44.559Z,85.44
2019-03-24T06:55:24.970Z,84.96
2019-03-24T06:56:05.387Z,85.82
2019-03-24T06:56:45.799Z,86.3
2019-03-24T06:57:26.242Z,86.1
2019-03-24T06:58:06.659Z,85.82
2019-03-24T06:58:47.076Z,86.87
2019-03-24T07:02:17.944Z,85.58
2019-03-24T07:02:58.524Z,85.97
2019-03-24T07:03:38.938Z,86.2
2019-03-24T07:04:19.340Z,85.58
2019-03-24T07:04:59.737Z,86.92
2019-03-24T07:05:40.133Z,87.02
2019-03-24T07:06:20.561Z,86.92
2019-03-24T07:07:00.967Z,87.49
2019-03-24T07:07:41.393Z,87.49
2019-03-24T07:08:21.812Z,87.06
2019-03-24T07:09:02.230Z,86.77
2019-03-24T07:09:42.645Z,86.01
2019-03-24T07:10:23.064Z,86.2
2019-03-24T07:11:07.199Z,85.82
2019-03-24T07:11:43.890Z,85.91
2019-03-24T07:12:24.324Z,85.53
2019-03-24T07:13:04.750Z,85.82
2019-03-24T07:13:45.171Z,85.44
2019-03-24T07:14:25.583Z,85.34
2019-03-24T07:15:06.001Z,85.34
2019-03-24T07:15:46.424Z,85.44
2019-03-24T07:16:26.855Z,84.96
2019-03-24T07:17:07.323Z,85.15
2019-03-24T07:17:47.748Z,85.63
2019-03-24T07:18:28.168Z,86.3
2019-03-24T07:19:08.587Z,85.44
2019-03-24T07:19:49.015Z,85.25
2019-03-24T07:20:29.427Z,85.44
2019-03-24T07:21:09.801Z,85.05
2019-03-24T07:21:50.348Z,84.58
2019-03-24T07:22:30.755Z,84.48
2019-03-24T07:23:11.157Z,83.34
2019-03-24T07:23:51.577Z,83.43
2019-03-24T07:24:32.042Z,82.86
2019-03-24T07:25:12.473Z,83.18
2019-03-24T07:25:52.890Z,83.09
2019-03-24T07:26:33.301Z,82.81
2019-03-24T07:27:13.743Z,82.81
2019-03-24T07:27:54.136Z,82.52
2019-03-24T07:28:34.558Z,82.42
2019-03-24T07:29:14.983Z,81.85
2019-03-24T07:29:55.390Z,82.04
2019-03-24T07:30:35.828Z,82.04
2019-03-24T07:31:16.250Z,82.04
2019-03-24T07:31:56.676Z,82.14
2019-03-24T07:32:37.090Z,82.14
2019-03-24T07:33:17.518Z,82.04
2019-03-24T07:33:57.919Z,81.66
2019-03-24T07:34:38.319Z,81.24
2019-03-24T07:35:18.729Z,81.71
2019-03-24T07:35:59.130Z,82.48
2019-03-24T07:36:39.554Z,82.19
2019-03-24T07:37:19.989Z,82.86
2019-03-24T07:38:00.386Z,82.38
2019-03-24T07:38:40.803Z,82.86
2019-03-24T07:39:21.218Z,82.67
2019-03-24T07:40:01.642Z,82.09
2019-03-24T07:40:42.064Z,82.67
2019-03-24T07:41:22.480Z,82
2019-03-24T07:42:02.883Z,81.27
2019-03-24T07:42:43.315Z,80.99
2019-03-24T07:43:23.704Z,81.47
2019-03-24T07:44:04.123Z,80.7
2019-03-24T07:44:44.538Z,80.61
2019-03-24T07:45:24.940Z,80.04
2019-03-24T07:46:05.347Z,79.65
2019-03-24T07:46:45.759Z,79.65
2019-03-24T07:47:26.186Z,79.17
2019-03-24T07:48:06.593Z,79.27
2019-03-24T07:48:47.008Z,79.56
2019-03-24T07:49:27.430Z,78.6
2019-03-24T07:50:07.868Z,78.6
2019-03-24T07:50:48.259Z,78.03
2019-03-24T07:51:28.663Z,78.13
2019-03-24T07:52:09.081Z,78.22
2019-03-24T07:52:49.513Z,78.31
2019-03-24T07:53:29.903Z,77.84
2019-03-24T07:54:10.319Z,78.51
2019-03-24T07:54:50.795Z,78.03
2019-03-24T07:55:31.129Z,78.03
2019-03-24T07:56:11.571Z,78.51
2019-03-24T07:56:52.006Z,78.7
2019-03-24T07:57:32.380Z,78.79
2019-03-24T07:58:12.749Z,78.31
2019-03-24T07:58:53.128Z,77.94
2019-03-24T07:59:33.541Z,78.03
2019-03-24T08:00:13.949Z,78.7
2019-03-24T08:00:54.336Z,78.41
2019-03-24T08:01:34.746Z,78.6
2019-03-24T08:02:15.111Z,79.17
2019-03-24T08:02:55.520Z,79.08
2019-03-24T08:03:35.890Z,78.6
2019-03-24T08:04:16.275Z,78.6
2019-03-24T08:04:56.652Z,78.51
2019-03-24T08:05:37.080Z,78.79
2019-03-24T08:06:17.486Z,78.79
2019-03-24T08:06:57.904Z,79.36
2019-03-24T08:07:38.321Z,78.7
2019-03-24T08:08:18.745Z,78.31
2019-03-24T08:08:59.145Z,77.94
2019-03-24T08:09:39.551Z,78.03
2019-03-24T08:10:19.978Z,78.51
2019-03-24T08:11:00.400Z,78.41
2019-03-24T08:11:40.816Z,78.41
2019-03-24T08:12:21.235Z,78.13
2019-03-24T08:13:01.670Z,78.6
2019-03-24T08:13:52.788Z,78.79
2019-03-24T08:14:22.501Z,77.74
2019-03-24T08:15:02.913Z,77.65
2019-03-24T08:15:43.331Z,78.03
2019-03-24T08:16:23.725Z,77.65
2019-03-24T08:17:04.163Z,77.17
2019-03-24T08:17:44.584Z,76.69
2019-03-24T08:18:29.714Z,76.79
2019-03-24T08:19:05.426Z,77.26
2019-03-24T08:19:45.870Z,77.55
2019-03-24T08:20:26.262Z,77.21
2019-03-24T08:21:06.682Z,76.69
2019-03-24T08:21:47.116Z,76.64
2019-03-24T08:22:27.538Z,76.73
2019-03-24T08:23:07.981Z,76.5
2019-03-24T08:23:48.380Z,76.16
2019-03-24T08:24:28.799Z,75.93
2019-03-24T08:25:09.207Z,75.87
2019-03-24T08:25:49.630Z,75.39
2019-03-24T08:26:30.027Z,75.26
2019-03-24T08:27:10.467Z,75.16
2019-03-24T08:27:50.848Z,75.64
2019-03-24T08:28:31.260Z,75.26
2019-03-24T08:29:11.694Z,75.07
2019-03-24T08:29:52.089Z,75.07
2019-03-24T08:30:32.512Z,76.03
2019-03-24T08:31:12.955Z,75.26
2019-03-24T08:31:53.344Z,75.16
2019-03-24T08:32:33.767Z,74.78
2019-03-24T08:33:14.190Z,74.82
2019-03-24T08:33:54.596Z,74.53
2019-03-24T08:34:35.018Z,73.96
2019-03-24T08:35:15.440Z,73.86
2019-03-24T08:35:55.881Z,73.48
2019-03-24T08:36:36.436Z,74.05
2019-03-24T08:37:16.840Z,73.77
2019-03-24T08:37:57.273Z,74.24
2019-03-24T08:38:37.686Z,73.77
2019-03-24T08:39:18.295Z,74.15
2019-03-24T08:39:58.706Z,73.48
2019-03-24T08:40:39.117Z,73
2019-03-24T08:41:19.514Z,72.43
2019-03-24T08:41:59.942Z,72.72
2019-03-24T08:42:40.381Z,72.53
2019-03-24T08:43:20.770Z,72.14
2019-03-24T08:44:01.264Z,71.61
2019-03-24T08:44:41.695Z,71
2019-03-24T08:45:22.119Z,71.7
2019-03-24T08:46:02.521Z,71.61
2019-03-24T08:46:45.045Z,71.99
2019-03-24T08:47:23.307Z,72.08
2019-03-24T08:48:03.699Z,71.22
2019-03-24T08:48:44.134Z,71.03
2019-03-24T08:49:24.562Z,70.56
2019-03-24T08:50:04.895Z,70.27
2019-03-24T08:50:45.311Z,69.79
2019-03-24T08:51:25.720Z,70.94
2019-03-24T08:52:06.139Z,70.36
2019-03-24T08:52:46.521Z,70.65
2019-03-24T08:53:26.943Z,70.65
2019-03-24T08:54:07.355Z,71.03
2019-03-24T08:54:47.788Z,71.51
2019-03-24T08:55:28.195Z,71.32
2019-03-24T08:56:08.631Z,70.94
2019-03-24T08:56:49.045Z,70.65
2019-03-24T08:57:29.462Z,70.75
2019-03-24T08:58:09.865Z,70.56
2019-03-24T08:58:50.277Z,70.3
2019-03-24T08:59:31.616Z,69.82
2019-03-24T09:00:12.036Z,70.01
2019-03-24T09:00:52.495Z,69.73
2019-03-24T09:01:32.891Z,69.6
2019-03-24T09:02:13.317Z,69.6
2019-03-24T09:02:53.737Z,69.41
2019-03-24T09:03:34.163Z,69.79
2019-03-24T09:04:14.610Z,69.98
2019-03-24T09:04:55.009Z,70.07
2019-03-24T09:05:35.412Z,70.11
2019-03-24T09:06:15.833Z,69.92
2019-03-24T09:06:56.245Z,69.92
2019-03-24T09:07:36.674Z,69.82
2019-03-24T09:08:17.131Z,69.98
2019-03-24T09:08:59.440Z,69.92
2019-03-24T09:09:39.819Z,69.82
2019-03-24T09:10:20.248Z,69.79
2019-03-24T09:11:00.639Z,69.79
2019-03-24T09:11:41.063Z,69.7
2019-03-24T09:12:21.456Z,70.11
2019-03-24T09:13:01.862Z,69.73
2019-03-24T09:13:42.257Z,69.25
2019-03-24T09:14:22.677Z,69.73
2019-03-24T09:15:03.100Z,69.64
2019-03-24T09:15:43.600Z,69.64
2019-03-24T09:16:24.002Z,69.35
2019-03-24T09:17:04.399Z,69.35
2019-03-24T09:17:44.869Z,70.01
2019-03-24T09:18:25.175Z,69.6
2019-03-24T09:19:05.554Z,69.7
2019-03-24T09:19:45.978Z,70.07
2019-03-24T09:20:26.377Z,69.12
2019-03-24T09:21:06.785Z,69.44
2019-03-24T09:21:47.194Z,69.82
2019-03-24T09:22:27.579Z,69.5
2019-03-24T09:23:10.448Z,69.64
2019-03-24T09:23:48.408Z,69.25
2019-03-24T09:24:28.808Z,69.31
2019-03-24T09:25:09.163Z,68.93
2019-03-24T09:25:49.595Z,69.31
2019-03-24T09:26:29.996Z,69.7
2019-03-24T09:27:10.399Z,69.6
2019-03-24T09:27:50.765Z,69.79
2019-03-24T09:28:31.168Z,70.07
2019-03-24T09:29:11.566Z,69.64
2019-03-24T09:29:51.947Z,69.54
2019-03-24T09:30:32.348Z,68.96